createdAt,value
2022-10-02T00:03:28.855Z,44.46
2022-10-02T00:08:34.930Z,44.33
2022-10-02T00:13:43.077Z,44.34
2022-10-02T00:18:47.160Z,44.33
2022-10-02T00:23:58.612Z,44.07
2022-10-02T00:29:24.568Z,44.20
2022-10-02T00:35:03.500Z,44.27
2022-10-02T00:40:32.708Z,44.27
2022-10-02T00:45:54.372Z,43.97
2022-10-02T00:51:35.664Z,44.27
2022-10-02T00:56:58.968Z,44.19
2022-10-02T01:02:11.431Z,44.18
2022-10-02T01:07:14.517Z,44.17
2022-10-02T01:12:17.030Z,44.17
2022-10-02T01:17:26.048Z,44.27
2022-10-02T01:22:45.821Z,44.19
2022-10-02T01:27:48.501Z,44.19
2022-10-02T01:33:00.165Z,44.19
2022-10-02T01:38:11.625Z,44.36
2022-10-02T01:43:19.454Z,44.20
2022-10-02T01:48:24.317Z,44.06
2022-10-02T01:53:45.304Z,44.04
2022-10-02T01:59:16.308Z,44.21
2022-10-02T02:04:31.893Z,43.92
2022-10-02T02:10:02.581Z,43.90
2022-10-02T02:15:20.393Z,44.17
2022-10-02T02:20:28.991Z,43.88
2022-10-02T02:25:34.299Z,44.26
2022-10-02T02:30:41.417Z,43.88
2022-10-02T02:35:48.864Z,43.96
2022-10-02T02:40:52.057Z,43.95
2022-10-02T02:46:01.524Z,43.96
2022-10-02T02:51:11.356Z,43.88
2022-10-02T02:56:17.429Z,43.89
2022-10-02T03:01:19.622Z,43.91
2022-10-02T03:06:21.934Z,43.79
2022-10-02T03:11:41.489Z,44.24
2022-10-02T03:17:03.712Z,44.05
2022-10-02T03:22:16.915Z,44.22
2022-10-02T03:27:30.270Z,43.64
2022-10-02T03:32:38.420Z,43.89
2022-10-02T03:37:44.180Z,44.07
2022-10-02T03:42:46.184Z,43.93
2022-10-02T03:47:48.324Z,44.06
2022-10-02T03:52:52.797Z,43.86
2022-10-02T03:57:55.273Z,44.03
2022-10-02T04:03:01.081Z,43.78
2022-10-02T04:08:15.681Z,43.77
2022-10-02T04:13:32.437Z,43.94
2022-10-02T04:18:57.329Z,43.88
2022-10-02T04:24:09.879Z,43.81
2022-10-02T04:29:18.708Z,43.62
2022-10-02T04:34:20.843Z,43.77
2022-10-02T04:39:46.855Z,43.74
2022-10-02T04:45:16.521Z,43.87
2022-10-02T04:50:37.237Z,43.89
2022-10-02T04:56:03.618Z,43.91
2022-10-02T05:01:24.208Z,43.87
2022-10-02T05:06:47.368Z,43.89
2022-10-02T05:12:26.617Z,43.85
2022-10-02T05:18:01.540Z,43.77
2022-10-02T05:23:29.924Z,43.90
2022-10-02T05:28:47.433Z,43.76
2022-10-02T05:34:20.951Z,43.99
2022-10-02T05:39:33.969Z,43.67
2022-10-02T05:44:41.949Z,43.88
2022-10-02T05:49:56.573Z,43.76
2022-10-02T05:55:13.696Z,43.59
2022-10-02T06:00:51.046Z,43.68
2022-10-02T06:06:10.927Z,43.53
2022-10-02T06:11:39.367Z,43.81
2022-10-02T06:17:03.965Z,43.93
2022-10-02T06:22:28.599Z,43.49
2022-10-02T06:27:57.097Z,43.31
2022-10-02T06:33:03.775Z,43.54
2022-10-02T06:38:11.980Z,43.65
2022-10-02T06:43:24.785Z,43.70
2022-10-02T06:48:32.983Z,43.59
2022-10-02T06:53:37.583Z,43.45
2022-10-02T06:58:57.994Z,43.37
2022-10-02T07:04:29.423Z,43.40
2022-10-02T07:09:42.063Z,43.34
2022-10-02T07:15:03.610Z,43.50
2022-10-02T07:20:29.863Z,43.40
2022-10-02T07:25:40.805Z,43.52
2022-10-02T07:30:58.676Z,43.31
2022-10-02T07:36:10.901Z,43.60
2022-10-02T07:41:52.196Z,43.79
2022-10-02T07:47:06.041Z,43.67
2022-10-02T07:52:48.781Z,43.79
2022-10-02T07:57:56.792Z,43.56
2022-10-02T08:03:06.555Z,43.80
2022-10-02T08:08:32.284Z,43.99
2022-10-02T08:13:58.209Z,44.07
2022-10-02T08:19:08.172Z,44.05
2022-10-02T08:24:19.532Z,44.14
2022-10-02T08:29:33.258Z,44.39
2022-10-02T08:34:35.540Z,44.18
2022-10-02T08:39:52.386Z,44.59
2022-10-02T08:44:57.513Z,44.96
2022-10-02T08:50:02.321Z,44.82
2022-10-02T08:55:22.884Z,45.18
2022-10-02T09:00:31.016Z,45.63
2022-10-02T09:06:06.585Z,45.69
2022-10-02T09:11:32.806Z,46.01
2022-10-02T09:16:56.282Z,46.35
2022-10-02T09:22:27.340Z,46.75
2022-10-02T09:27:50.700Z,47.06
2022-10-02T09:33:07.878Z,47.54
2022-10-02T09:38:14.363Z,48.17
2022-10-02T09:43:53.733Z,48.15
2022-10-02T09:49:24.588Z,48.61
2022-10-02T09:54:47.551Z,48.48
2022-10-02T10:00:08.573Z,48.58
2022-10-02T10:05:41.681Z,48.81
2022-10-02T10:10:52.995Z,48.95
2022-10-02T10:15:56.391Z,48.90
2022-10-02T10:21:30.223Z,49.33
2022-10-02T10:27:09.922Z,49.53
2022-10-02T10:32:17.893Z,50.05
2022-10-02T10:38:13.845Z,49.99
2022-10-02T10:43:37.763Z,50.41
2022-10-02T10:49:04.445Z,50.45
2022-10-02T10:54:18.341Z,50.88
2022-10-02T10:59:31.696Z,50.76
2022-10-02T11:04:39.121Z,50.91
2022-10-02T11:09:47.970Z,51.21
2022-10-02T11:15:17.705Z,51.08
2022-10-02T11:20:55.382Z,51.50
2022-10-02T11:26:24.014Z,51.43
2022-10-02T11:31:35.265Z,51.61
2022-10-02T11:36:42.720Z,51.43
2022-10-02T11:42:16.949Z,51.49
2022-10-02T11:47:33.865Z,51.38
2022-10-02T11:53:07.906Z,51.29
2022-10-02T11:58:27.289Z,51.13
2022-10-02T12:04:06.719Z,51.30
2022-10-02T12:09:33.403Z,51.24
2022-10-02T12:14:38.413Z,51.16
2022-10-02T12:20:31.283Z,51.35
2022-10-02T12:26:02.217Z,51.31
2022-10-02T12:31:23.622Z,51.53
2022-10-02T12:36:34.423Z,51.59
2022-10-02T12:41:43.192Z,51.81
2022-10-02T12:47:19.253Z,51.90
2022-10-02T12:52:30.262Z,51.90
2022-10-02T12:57:52.702Z,52.26
2022-10-02T13:03:18.928Z,52.49
2022-10-02T13:08:39.817Z,52.72
2022-10-02T13:14:03.727Z,52.75
2022-10-02T13:19:20.414Z,53.07
2022-10-02T13:25:02.138Z,53.29
2022-10-02T13:30:21.624Z,53.61
2022-10-02T13:35:36.127Z,53.48
2022-10-02T13:40:58.696Z,53.54
2022-10-02T13:46:21.537Z,53.71
2022-10-02T13:51:42.850Z,53.75
2022-10-02T13:56:44.879Z,53.93
2022-10-02T14:01:57.210Z,53.83
2022-10-02T14:07:35.882Z,53.95
2022-10-02T14:12:44.533Z,53.72
2022-10-02T14:18:05.970Z,53.78
2022-10-02T14:23:44.549Z,53.67
2022-10-02T14:28:58.674Z,53.59
2022-10-02T14:34:25.174Z,53.68
2022-10-02T14:39:34.592Z,53.33
2022-10-02T14:44:45.560Z,53.49
2022-10-02T14:50:15.963Z,53.28
2022-10-02T14:55:26.809Z,53.25
2022-10-02T15:01:10.993Z,53.22
2022-10-02T15:06:22.154Z,53.35
2022-10-02T15:11:36.644Z,53.17
2022-10-02T15:17:27.968Z,53.14
2022-10-02T15:22:45.507Z,53.20
2022-10-02T15:28:34.573Z,52.86
2022-10-02T15:33:49.512Z,52.88
2022-10-02T15:39:42.059Z,53.01
2022-10-02T15:44:49.892Z,52.84
2022-10-02T15:49:55.587Z,52.75
2022-10-02T15:55:20.420Z,52.86
2022-10-02T16:00:24.248Z,52.87
2022-10-02T16:06:03.929Z,52.86
2022-10-02T16:11:11.784Z,52.71
2022-10-02T16:16:34.760Z,52.84
2022-10-02T16:22:10.689Z,52.89
2022-10-02T16:27:46.631Z,52.74
2022-10-02T16:33:03.709Z,52.78
2022-10-02T16:38:30.368Z,52.46
2022-10-02T16:43:34.948Z,52.36
2022-10-02T16:48:39.838Z,52.55
2022-10-02T16:53:45.382Z,52.15
2022-10-02T16:59:01.906Z,51.83
2022-10-02T17:04:31.333Z,51.55
2022-10-02T17:09:47.785Z,51.31
2022-10-02T17:15:03.085Z,50.89
2022-10-02T17:20:19.088Z,50.62
2022-10-02T17:25:36.752Z,50.20
2022-10-02T17:31:01.498Z,50.30
2022-10-02T17:36:21.143Z,49.79
2022-10-02T17:41:23.114Z,49.80
2022-10-02T17:46:57.344Z,49.31
2022-10-02T17:52:32.846Z,49.14
2022-10-02T17:58:02.382Z,48.84
2022-10-02T18:03:19.573Z,48.60
2022-10-02T18:08:32.452Z,48.61
2022-10-02T18:13:59.839Z,48.19
2022-10-02T18:19:22.378Z,48.53
2022-10-02T18:24:45.717Z,48.28
2022-10-02T18:29:53.688Z,48.01
2022-10-02T18:35:28.517Z,48.13
2022-10-02T18:40:48.105Z,47.75
2022-10-02T18:46:14.681Z,47.96
2022-10-02T18:51:39.964Z,47.61
2022-10-02T18:56:47.541Z,47.76
2022-10-02T19:01:49.642Z,47.41
2022-10-02T19:07:29.528Z,47.37
2022-10-02T19:12:31.593Z,47.29
2022-10-02T19:17:34.910Z,47.13
2022-10-02T19:22:38.579Z,47.00
2022-10-02T19:27:44.728Z,47.24
2022-10-02T19:32:49.608Z,46.89
2022-10-02T19:37:54.355Z,46.90
2022-10-02T19:43:04.222Z,46.77
2022-10-02T19:48:16.577Z,46.78
2022-10-02T19:53:41.679Z,46.48
2022-10-02T19:58:52.152Z,46.55
2022-10-02T20:03:59.558Z,46.44
2022-10-02T20:09:05.872Z,46.49
2022-10-02T20:14:21.837Z,46.41
2022-10-02T20:19:34.743Z,46.37
2022-10-02T20:25:06.804Z,46.33
2022-10-02T20:30:50.104Z,46.21
2022-10-02T20:36:01.890Z,46.28
2022-10-02T20:41:12.814Z,46.33
2022-10-02T20:46:33.630Z,46.25
2022-10-02T20:51:48.189Z,46.30
2022-10-02T20:57:49.669Z,46.14
2022-10-02T21:03:00.518Z,45.79
2022-10-02T21:08:37.813Z,45.91
2022-10-02T21:13:54.697Z,45.87
2022-10-02T21:19:38.277Z,45.95
2022-10-02T21:25:24.289Z,45.88
2022-10-02T21:30:40.173Z,45.75
2022-10-02T21:35:56.045Z,45.69
2022-10-02T21:40:58.008Z,45.56
2022-10-02T21:46:30.902Z,45.43
2022-10-02T21:51:50.022Z,45.47
2022-10-02T21:57:16.694Z,45.46
2022-10-02T22:02:55.764Z,45.46
2022-10-02T22:08:08.363Z,45.38
2022-10-02T22:13:33.311Z,45.46
2022-10-02T22:19:01.981Z,45.27
2022-10-02T22:24:19.234Z,45.30
2022-10-02T22:29:42.872Z,45.24
2022-10-02T22:35:07.107Z,45.16
2022-10-02T22:40:16.991Z,45.36
2022-10-02T22:45:33.600Z,45.30
2022-10-02T22:50:45.607Z,45.27
2022-10-02T22:55:55.875Z,45.25
2022-10-02T23:01:13.544Z,45.28
2022-10-02T23:06:31.979Z,45.09
2022-10-02T23:11:55.367Z,45.00
2022-10-02T23:17:16.042Z,45.10
2022-10-02T23:22:26.678Z,45.03
2022-10-02T23:27:35.143Z,44.87
2022-10-02T23:32:37.023Z,44.84
2022-10-02T23:37:48.084Z,44.99
2022-10-02T23:42:55.416Z,44.85
2022-10-02T23:48:06.147Z,45.03
2022-10-02T23:53:14.064Z,44.83
2022-10-02T23:58:41.991Z,44.79
